sensor_id;sensor_type;location;lat;lon;timestamp;P1;durP1;ratioP1;P2;durP2;ratioP2
19364;SDS011;9818;48.382;10.850;2024-03-08T00:00:36;2.93;;;2.70;;
19364;SDS011;9818;48.382;10.850;2024-03-08T00:03:10;2.80;;;2.60;;
19364;SDS011;9818;48.382;10.850;2024-03-08T00:05:39;3.33;;;3.03;;
19364;SDS011;9818;48.382;10.850;2024-03-08T00:08:10;3.93;;;3.00;;
19364;SDS011;9818;48.382;10.850;2024-03-08T00:10:40;3.70;;;3.17;;
19364;SDS011;9818;48.382;10.850;2024-03-08T00:13:09;3.63;;;2.97;;
19364;SDS011;9818;48.382;10.850;2024-03-08T00:15:38;3.17;;;2.87;;
19364;SDS011;9818;48.382;10.850;2024-03-08T00:18:06;3.30;;;2.93;;
19364;SDS011;9818;48.382;10.850;2024-03-08T00:20:38;3.43;;;3.13;;
19364;SDS011;9818;48.382;10.850;2024-03-08T00:23:07;3.17;;;2.87;;
19364;SDS011;9818;48.382;10.850;2024-03-08T00:25:36;3.07;;;2.77;;
19364;SDS011;9818;48.382;10.850;2024-03-08T00:28:05;4.77;;;3.00;;
19364;SDS011;9818;48.382;10.850;2024-03-08T00:30:34;3.47;;;3.03;;
19364;SDS011;9818;48.382;10.850;2024-03-08T00:33:03;3.23;;;2.80;;
19364;SDS011;9818;48.382;10.850;2024-03-08T00:35:34;3.20;;;2.90;;
19364;SDS011;9818;48.382;10.850;2024-03-08T00:38:03;3.20;;;2.90;;
19364;SDS011;9818;48.382;10.850;2024-03-08T00:40:32;3.23;;;2.87;;
19364;SDS011;9818;48.382;10.850;2024-03-08T00:43:01;3.20;;;2.83;;
19364;SDS011;9818;48.382;10.850;2024-03-08T00:45:30;3.20;;;2.90;;
19364;SDS011;9818;48.382;10.850;2024-03-08T00:47:59;2.80;;;2.57;;
19364;SDS011;9818;48.382;10.850;2024-03-08T00:50:27;4.23;;;3.23;;
19364;SDS011;9818;48.382;10.850;2024-03-08T00:52:59;3.50;;;3.20;;
19364;SDS011;9818;48.382;10.850;2024-03-08T00:55:28;3.23;;;2.90;;
19364;SDS011;9818;48.382;10.850;2024-03-08T00:57:57;3.03;;;2.73;;
19364;SDS011;9818;48.382;10.850;2024-03-08T01:00:26;3.27;;;2.87;;
19364;SDS011;9818;48.382;10.850;2024-03-08T01:02:54;3.77;;;2.80;;
19364;SDS011;9818;48.382;10.850;2024-03-08T01:05:24;2.97;;;2.60;;
19364;SDS011;9818;48.382;10.850;2024-03-08T01:07:52;3.53;;;3.23;;
19364;SDS011;9818;48.382;10.850;2024-03-08T01:10:24;3.13;;;2.80;;
19364;SDS011;9818;48.382;10.850;2024-03-08T01:12:53;2.90;;;2.70;;
19364;SDS011;9818;48.382;10.850;2024-03-08T01:15:22;3.60;;;2.87;;
19364;SDS011;9818;48.382;10.850;2024-03-08T01:17:51;3.23;;;2.93;;
19364;SDS011;9818;48.382;10.850;2024-03-08T01:20:20;3.70;;;2.70;;
19364;SDS011;9818;48.382;10.850;2024-03-08T01:22:48;3.30;;;3.00;;
19364;SDS011;9818;48.382;10.850;2024-03-08T01:25:17;3.00;;;2.67;;
19364;SDS011;9818;48.382;10.850;2024-03-08T01:27:49;2.97;;;2.73;;
19364;SDS011;9818;48.382;10.850;2024-03-08T01:30:19;3.40;;;3.10;;
19364;SDS011;9818;48.382;10.850;2024-03-08T01:32:48;3.33;;;2.70;;
19364;SDS011;9818;48.382;10.850;2024-03-08T01:35:17;3.60;;;3.27;;
19364;SDS011;9818;48.382;10.850;2024-03-08T01:37:47;3.50;;;3.17;;
19364;SDS011;9818;48.382;10.850;2024-03-08T01:40:16;2.80;;;2.60;;
19364;SDS011;9818;48.382;10.850;2024-03-08T01:42:45;3.20;;;2.90;;
19364;SDS011;9818;48.382;10.850;2024-03-08T01:45:18;3.13;;;2.80;;
19364;SDS011;9818;48.382;10.850;2024-03-08T01:47:47;3.47;;;3.17;;
19364;SDS011;9818;48.382;10.850;2024-03-08T01:50:16;3.83;;;2.73;;
19364;SDS011;9818;48.382;10.850;2024-03-08T01:52:45;3.00;;;2.70;;
19364;SDS011;9818;48.382;10.850;2024-03-08T01:55:14;3.33;;;2.70;;
19364;SDS011;9818;48.382;10.850;2024-03-08T01:57:43;2.60;;;2.40;;
19364;SDS011;9818;48.382;10.850;2024-03-08T02:00:15;2.67;;;2.47;;
19364;SDS011;9818;48.382;10.850;2024-03-08T02:02:44;3.50;;;2.97;;
19364;SDS011;9818;48.382;10.850;2024-03-08T02:05:14;3.50;;;3.20;;
19364;SDS011;9818;48.382;10.850;2024-03-08T02:07:43;2.97;;;2.70;;
19364;SDS011;9818;48.382;10.850;2024-03-08T02:10:12;3.10;;;2.80;;
19364;SDS011;9818;48.382;10.850;2024-03-08T02:12:41;3.30;;;3.00;;
19364;SDS011;9818;48.382;10.850;2024-03-08T02:15:10;3.10;;;2.80;;
19364;SDS011;9818;48.382;10.850;2024-03-08T02:17:41;3.30;;;2.93;;
19364;SDS011;9818;48.382;10.850;2024-03-08T02:20:10;3.37;;;3.07;;
19364;SDS011;9818;48.382;10.850;2024-03-08T02:22:42;3.40;;;3.00;;
19364;SDS011;9818;48.382;10.850;2024-03-08T02:25:11;3.50;;;3.20;;
19364;SDS011;9818;48.382;10.850;2024-03-08T02:27:40;3.47;;;3.17;;
19364;SDS011;9818;48.382;10.850;2024-03-08T02:30:10;3.10;;;2.80;;
19364;SDS011;9818;48.382;10.850;2024-03-08T02:32:41;3.30;;;3.00;;
19364;SDS011;9818;48.382;10.850;2024-03-08T02:35:10;3.10;;;2.80;;
19364;SDS011;9818;48.382;10.850;2024-03-08T02:37:41;3.00;;;2.70;;
19364;SDS011;9818;48.382;10.850;2024-03-08T02:40:13;3.13;;;2.83;;
19364;SDS011;9818;48.382;10.850;2024-03-08T02:42:41;3.57;;;2.87;;
19364;SDS011;9818;48.382;10.850;2024-03-08T02:45:08;4.13;;;3.30;;
19364;SDS011;9818;48.382;10.850;2024-03-08T02:47:38;3.40;;;3.10;;
19364;SDS011;9818;48.382;10.850;2024-03-08T02:50:07;3.33;;;3.03;;
19364;SDS011;9818;48.382;10.850;2024-03-08T02:52:37;2.80;;;2.53;;
19364;SDS011;9818;48.382;10.850;2024-03-08T02:55:09;3.20;;;2.90;;
19364;SDS011;9818;48.382;10.850;2024-03-08T02:57:41;3.40;;;3.10;;
19364;SDS011;9818;48.382;10.850;2024-03-08T03:00:11;3.57;;;3.27;;
19364;SDS011;9818;48.382;10.850;2024-03-08T03:02:41;3.43;;;3.13;;
19364;SDS011;9818;48.382;10.850;2024-03-08T03:05:10;3.20;;;2.90;;
19364;SDS011;9818;48.382;10.850;2024-03-08T03:07:39;2.73;;;2.53;;
19364;SDS011;9818;48.382;10.850;2024-03-08T03:10:10;3.23;;;2.93;;
19364;SDS011;9818;48.382;10.850;2024-03-08T03:12:42;3.43;;;3.07;;
19364;SDS011;9818;48.382;10.850;2024-03-08T03:15:11;3.63;;;3.20;;
19364;SDS011;9818;48.382;10.850;2024-03-08T03:17:45;3.10;;;2.80;;
19364;SDS011;9818;48.382;10.850;2024-03-08T03:20:16;3.23;;;2.93;;
19364;SDS011;9818;48.382;10.850;2024-03-08T03:22:48;3.50;;;3.20;;
19364;SDS011;9818;48.382;10.850;2024-03-08T03:25:21;3.30;;;3.00;;
19364;SDS011;9818;48.382;10.850;2024-03-08T03:27:54;3.23;;;2.93;;
19364;SDS011;9818;48.382;10.850;2024-03-08T03:30:23;2.90;;;2.70;;
19364;SDS011;9818;48.382;10.850;2024-03-08T03:32:56;3.33;;;3.00;;
19364;SDS011;9818;48.382;10.850;2024-03-08T03:35:25;3.47;;;3.13;;
19364;SDS011;9818;48.382;10.850;2024-03-08T03:37:54;3.23;;;2.93;;
19364;SDS011;9818;48.382;10.850;2024-03-08T03:40:34;3.20;;;2.90;;
19364;SDS011;9818;48.382;10.850;2024-03-08T03:43:03;2.57;;;2.37;;
19364;SDS011;9818;48.382;10.850;2024-03-08T03:45:32;3.07;;;2.77;;
19364;SDS011;9818;48.382;10.850;2024-03-08T03:48:02;3.43;;;3.13;;
19364;SDS011;9818;48.382;10.850;2024-03-08T03:50:31;3.13;;;2.83;;
19364;SDS011;9818;48.382;10.850;2024-03-08T03:53:00;2.80;;;2.60;;
19364;SDS011;9818;48.382;10.850;2024-03-08T03:55:29;3.33;;;3.03;;
19364;SDS011;9818;48.382;10.850;2024-03-08T03:58:01;3.37;;;2.80;;
19364;SDS011;9818;48.382;10.850;2024-03-08T04:00:30;3.40;;;2.90;;
19364;SDS011;9818;48.382;10.850;2024-03-08T04:02:59;3.03;;;2.73;;
19364;SDS011;9818;48.382;10.850;2024-03-08T04:05:28;2.80;;;2.60;;
19364;SDS011;9818;48.382;10.850;2024-03-08T04:07:57;3.30;;;3.00;;
19364;SDS011;9818;48.382;10.850;2024-03-08T04:10:25;3.30;;;2.97;;
19364;SDS011;9818;48.382;10.850;2024-03-08T04:12:54;3.10;;;2.80;;
19364;SDS011;9818;48.382;10.850;2024-03-08T04:15:26;4.13;;;2.90;;
19364;SDS011;9818;48.382;10.850;2024-03-08T04:17:55;2.80;;;2.60;;
19364;SDS011;9818;48.382;10.850;2024-03-08T04:20:25;3.77;;;3.30;;
19364;SDS011;9818;48.382;10.850;2024-03-08T04:22:54;3.10;;;2.80;;
19364;SDS011;9818;48.382;10.850;2024-03-08T04:25:23;3.07;;;2.77;;
19364;SDS011;9818;48.382;10.850;2024-03-08T04:27:52;2.90;;;2.70;;
19364;SDS011;9818;48.382;10.850;2024-03-08T04:30:21;3.17;;;2.93;;
19364;SDS011;9818;48.382;10.850;2024-03-08T04:32:52;3.30;;;3.00;;
19364;SDS011;9818;48.382;10.850;2024-03-08T04:35:21;3.17;;;2.87;;
19364;SDS011;9818;48.382;10.850;2024-03-08T04:37:50;3.33;;;3.03;;
19364;SDS011;9818;48.382;10.850;2024-03-08T04:40:19;2.83;;;2.63;;
19364;SDS011;9818;48.382;10.850;2024-03-08T04:42:48;3.67;;;3.20;;
19364;SDS011;9818;48.382;10.850;2024-03-08T04:45:17;3.13;;;2.83;;
19364;SDS011;9818;48.382;10.850;2024-03-08T04:47:46;3.93;;;3.00;;
19364;SDS011;9818;48.382;10.850;2024-03-08T04:50:20;3.17;;;2.87;;
19364;SDS011;9818;48.382;10.850;2024-03-08T04:52:49;3.30;;;2.80;;
19364;SDS011;9818;48.382;10.850;2024-03-08T04:55:17;2.90;;;2.60;;
19364;SDS011;9818;48.382;10.850;2024-03-08T04:57:47;3.30;;;3.00;;
19364;SDS011;9818;48.382;10.850;2024-03-08T05:00:16;3.30;;;3.00;;
19364;SDS011;9818;48.382;10.850;2024-03-08T05:02:45;2.90;;;2.60;;
19364;SDS011;9818;48.382;10.850;2024-03-08T05:05:21;3.23;;;2.93;;
19364;SDS011;9818;48.382;10.850;2024-03-08T05:07:51;3.50;;;3.20;;
19364;SDS011;9818;48.382;10.850;2024-03-08T05:10:20;2.90;;;2.70;;
19364;SDS011;9818;48.382;10.850;2024-03-08T05:12:48;3.30;;;3.00;;
19364;SDS011;9818;48.382;10.850;2024-03-08T05:15:17;3.27;;;2.97;;
19364;SDS011;9818;48.382;10.850;2024-03-08T05:17:46;3.53;;;3.23;;
19364;SDS011;9818;48.382;10.850;2024-03-08T05:20:15;3.67;;;3.27;;
19364;SDS011;9818;48.382;10.850;2024-03-08T05:22:47;4.07;;;3.30;;
19364;SDS011;9818;48.382;10.850;2024-03-08T05:25:17;3.60;;;3.00;;
19364;SDS011;9818;48.382;10.850;2024-03-08T05:27:45;3.07;;;2.70;;
19364;SDS011;9818;48.382;10.850;2024-03-08T05:30:15;3.17;;;2.87;;
19364;SDS011;9818;48.382;10.850;2024-03-08T05:32:46;2.90;;;2.70;;
19364;SDS011;9818;48.382;10.850;2024-03-08T05:35:15;2.70;;;2.50;;
19364;SDS011;9818;48.382;10.850;2024-03-08T05:37:47;2.70;;;2.50;;
19364;SDS011;9818;48.382;10.850;2024-03-08T05:40:15;3.17;;;2.80;;
19364;SDS011;9818;48.382;10.850;2024-03-08T05:42:44;2.90;;;2.70;;
19364;SDS011;9818;48.382;10.850;2024-03-08T05:45:13;2.87;;;2.63;;
19364;SDS011;9818;48.382;10.850;2024-03-08T05:47:42;3.67;;;3.33;;
19364;SDS011;9818;48.382;10.850;2024-03-08T05:50:11;3.63;;;3.33;;
19364;SDS011;9818;48.382;10.850;2024-03-08T05:52:41;3.17;;;2.87;;
19364;SDS011;9818;48.382;10.850;2024-03-08T05:55:12;3.30;;;3.00;;
19364;SDS011;9818;48.382;10.850;2024-03-08T05:57:41;3.17;;;2.83;;
19364;SDS011;9818;48.382;10.850;2024-03-08T06:00:10;3.03;;;2.73;;
19364;SDS011;9818;48.382;10.850;2024-03-08T06:02:40;2.83;;;2.63;;
19364;SDS011;9818;48.382;10.850;2024-03-08T06:05:09;3.10;;;2.80;;
19364;SDS011;9818;48.382;10.850;2024-03-08T06:07:38;3.33;;;3.03;;
19364;SDS011;9818;48.382;10.850;2024-03-08T06:10:08;2.73;;;2.53;;
19364;SDS011;9818;48.382;10.850;2024-03-08T06:12:42;4.33;;;2.60;;
19364;SDS011;9818;48.382;10.850;2024-03-08T06:15:11;3.03;;;2.70;;
19364;SDS011;9818;48.382;10.850;2024-03-08T06:17:42;3.23;;;2.93;;
19364;SDS011;9818;48.382;10.850;2024-03-08T06:20:11;3.27;;;2.87;;
19364;SDS011;9818;48.382;10.850;2024-03-08T06:22:40;3.37;;;3.07;;
19364;SDS011;9818;48.382;10.850;2024-03-08T06:25:12;3.33;;;3.00;;
19364;SDS011;9818;48.382;10.850;2024-03-08T06:27:42;3.80;;;2.90;;
19364;SDS011;9818;48.382;10.850;2024-03-08T06:30:12;3.10;;;2.70;;
19364;SDS011;9818;48.382;10.850;2024-03-08T06:32:41;3.00;;;2.70;;
19364;SDS011;9818;48.382;10.850;2024-03-08T06:35:10;3.83;;;2.90;;
19364;SDS011;9818;48.382;10.850;2024-03-08T06:37:41;3.40;;;2.80;;
19364;SDS011;9818;48.382;10.850;2024-03-08T06:40:13;2.90;;;2.60;;
19364;SDS011;9818;48.382;10.850;2024-03-08T06:42:42;3.13;;;2.83;;
19364;SDS011;9818;48.382;10.850;2024-03-08T06:45:10;4.07;;;3.47;;
19364;SDS011;9818;48.382;10.850;2024-03-08T06:47:44;2.60;;;2.40;;
19364;SDS011;9818;48.382;10.850;2024-03-08T06:50:13;3.73;;;2.77;;
19364;SDS011;9818;48.382;10.850;2024-03-08T06:52:42;2.80;;;2.60;;
19364;SDS011;9818;48.382;10.850;2024-03-08T06:55:18;3.13;;;2.83;;
19364;SDS011;9818;48.382;10.850;2024-03-08T06:57:47;3.77;;;3.00;;
19364;SDS011;9818;48.382;10.850;2024-03-08T07:00:16;4.23;;;2.90;;
19364;SDS011;9818;48.382;10.850;2024-03-08T07:02:46;3.00;;;2.70;;
19364;SDS011;9818;48.382;10.850;2024-03-08T07:05:18;3.23;;;2.93;;
19364;SDS011;9818;48.382;10.850;2024-03-08T07:07:48;2.93;;;2.70;;
19364;SDS011;9818;48.382;10.850;2024-03-08T07:10:20;3.13;;;2.77;;
19364;SDS011;9818;48.382;10.850;2024-03-08T07:12:49;3.07;;;2.77;;
19364;SDS011;9818;48.382;10.850;2024-03-08T07:15:18;3.00;;;2.70;;
19364;SDS011;9818;48.382;10.850;2024-03-08T07:17:48;2.97;;;2.67;;
19364;SDS011;9818;48.382;10.850;2024-03-08T07:20:17;3.10;;;2.80;;
19364;SDS011;9818;48.382;10.850;2024-03-08T07:22:46;2.83;;;2.60;;
19364;SDS011;9818;48.382;10.850;2024-03-08T07:25:16;3.00;;;2.40;;
19364;SDS011;9818;48.382;10.850;2024-03-08T07:27:52;3.27;;;2.80;;
19364;SDS011;9818;48.382;10.850;2024-03-08T07:30:22;2.77;;;2.47;;
19364;SDS011;9818;48.382;10.850;2024-03-08T07:33:04;3.27;;;2.97;;
19364;SDS011;9818;48.382;10.850;2024-03-08T07:35:36;3.27;;;2.80;;
19364;SDS011;9818;48.382;10.850;2024-03-08T07:38:06;3.63;;;2.67;;
19364;SDS011;9818;48.382;10.850;2024-03-08T07:40:35;3.13;;;2.60;;
19364;SDS011;9818;48.382;10.850;2024-03-08T07:43:08;3.30;;;3.00;;
19364;SDS011;9818;48.382;10.850;2024-03-08T07:45:37;3.10;;;2.80;;
19364;SDS011;9818;48.382;10.850;2024-03-08T07:48:06;3.13;;;2.80;;
19364;SDS011;9818;48.382;10.850;2024-03-08T07:50:36;3.03;;;2.57;;
19364;SDS011;9818;48.382;10.850;2024-03-08T07:53:05;2.93;;;2.70;;
19364;SDS011;9818;48.382;10.850;2024-03-08T07:55:34;3.10;;;2.80;;
19364;SDS011;9818;48.382;10.850;2024-03-08T07:58:05;3.10;;;2.67;;
19364;SDS011;9818;48.382;10.850;2024-03-08T08:00:36;3.10;;;2.80;;
19364;SDS011;9818;48.382;10.850;2024-03-08T08:03:08;3.00;;;2.70;;
19364;SDS011;9818;48.382;10.850;2024-03-08T08:05:37;3.13;;;2.80;;
19364;SDS011;9818;48.382;10.850;2024-03-08T08:08:07;3.33;;;3.00;;
19364;SDS011;9818;48.382;10.850;2024-03-08T08:10:36;3.20;;;2.90;;
19364;SDS011;9818;48.382;10.850;2024-03-08T08:13:08;3.43;;;3.13;;
19364;SDS011;9818;48.382;10.850;2024-03-08T08:15:38;2.93;;;2.63;;
19364;SDS011;9818;48.382;10.850;2024-03-08T08:18:06;3.13;;;2.80;;
19364;SDS011;9818;48.382;10.850;2024-03-08T08:20:35;3.13;;;2.83;;
19364;SDS011;9818;48.382;10.850;2024-03-08T08:23:04;3.40;;;3.10;;
19364;SDS011;9818;48.382;10.850;2024-03-08T08:25:34;3.37;;;3.07;;
19364;SDS011;9818;48.382;10.850;2024-03-08T08:28:03;3.50;;;3.20;;
19364;SDS011;9818;48.382;10.850;2024-03-08T08:30:34;21.40;;;15.37;;
19364;SDS011;9818;48.382;10.850;2024-03-08T08:33:04;23.40;;;17.77;;
19364;SDS011;9818;48.382;10.850;2024-03-08T08:35:33;25.27;;;18.83;;
19364;SDS011;9818;48.382;10.850;2024-03-08T08:38:02;18.97;;;13.20;;
19364;SDS011;9818;48.382;10.850;2024-03-08T08:40:32;16.70;;;12.50;;
19364;SDS011;9818;48.382;10.850;2024-03-08T08:43:02;15.53;;;11.63;;
19364;SDS011;9818;48.382;10.850;2024-03-08T08:45:34;13.60;;;10.33;;
19364;SDS011;9818;48.382;10.850;2024-03-08T08:48:04;15.20;;;10.43;;
19364;SDS011;9818;48.382;10.850;2024-03-08T08:50:35;12.83;;;10.07;;
19364;SDS011;9818;48.382;10.850;2024-03-08T08:53:04;13.37;;;10.03;;
19364;SDS011;9818;48.382;10.850;2024-03-08T08:55:34;13.97;;;10.23;;
19364;SDS011;9818;48.382;10.850;2024-03-08T08:58:03;11.83;;;9.60;;
19364;SDS011;9818;48.382;10.850;2024-03-08T09:00:35;12.17;;;9.03;;
19364;SDS011;9818;48.382;10.850;2024-03-08T09:03:04;11.83;;;8.73;;
19364;SDS011;9818;48.382;10.850;2024-03-08T09:05:34;10.40;;;8.67;;
19364;SDS011;9818;48.382;10.850;2024-03-08T09:08:03;10.93;;;8.73;;
19364;SDS011;9818;48.382;10.850;2024-03-08T09:10:33;11.17;;;8.87;;
19364;SDS011;9818;48.382;10.850;2024-03-08T09:13:04;11.33;;;8.27;;
19364;SDS011;9818;48.382;10.850;2024-03-08T09:15:37;11.37;;;8.77;;
19364;SDS011;9818;48.382;10.850;2024-03-08T09:18:06;8.67;;;7.10;;
19364;SDS011;9818;48.382;10.850;2024-03-08T09:20:36;11.73;;;8.47;;
19364;SDS011;9818;48.382;10.850;2024-03-08T09:23:06;11.23;;;8.03;;
19364;SDS011;9818;48.382;10.850;2024-03-08T09:25:35;10.47;;;7.30;;
19364;SDS011;9818;48.382;10.850;2024-03-08T09:28:04;10.77;;;7.13;;
19364;SDS011;9818;48.382;10.850;2024-03-08T09:30:34;8.90;;;7.70;;
19364;SDS011;9818;48.382;10.850;2024-03-08T09:33:06;9.47;;;7.00;;
19364;SDS011;9818;48.382;10.850;2024-03-08T09:35:35;9.37;;;7.00;;
19364;SDS011;9818;48.382;10.850;2024-03-08T09:38:04;11.00;;;7.33;;
19364;SDS011;9818;48.382;10.850;2024-03-08T09:40:38;7.30;;;6.57;;
19364;SDS011;9818;48.382;10.850;2024-03-08T09:43:08;8.57;;;6.67;;
19364;SDS011;9818;48.382;10.850;2024-03-08T09:45:38;8.57;;;7.00;;
19364;SDS011;9818;48.382;10.850;2024-03-08T09:48:11;7.73;;;6.27;;
19364;SDS011;9818;48.382;10.850;2024-03-08T09:50:40;7.90;;;6.50;;
19364;SDS011;9818;48.382;10.850;2024-03-08T09:53:10;7.50;;;5.80;;
19364;SDS011;9818;48.382;10.850;2024-03-08T09:55:40;7.97;;;6.10;;
19364;SDS011;9818;48.382;10.850;2024-03-08T09:58:11;9.10;;;6.93;;
19364;SDS011;9818;48.382;10.850;2024-03-08T10:00:53;7.93;;;6.27;;
19364;SDS011;9818;48.382;10.850;2024-03-08T10:03:25;6.83;;;6.10;;
19364;SDS011;9818;48.382;10.850;2024-03-08T10:05:55;8.23;;;6.20;;
19364;SDS011;9818;48.382;10.850;2024-03-08T10:08:25;7.93;;;6.20;;
19364;SDS011;9818;48.382;10.850;2024-03-08T10:10:55;7.50;;;5.87;;
19364;SDS011;9818;48.382;10.850;2024-03-08T10:13:25;8.03;;;6.17;;
19364;SDS011;9818;48.382;10.850;2024-03-08T10:15:55;7.40;;;5.93;;
19364;SDS011;9818;48.382;10.850;2024-03-08T10:18:27;7.03;;;5.90;;
19364;SDS011;9818;48.382;10.850;2024-03-08T10:21:02;8.80;;;5.77;;
19364;SDS011;9818;48.382;10.850;2024-03-08T10:23:32;6.67;;;5.60;;
19364;SDS011;9818;48.382;10.850;2024-03-08T10:26:09;7.50;;;5.83;;
19364;SDS011;9818;48.382;10.850;2024-03-08T10:28:40;7.50;;;5.87;;
19364;SDS011;9818;48.382;10.850;2024-03-08T10:31:09;5.90;;;5.30;;
19364;SDS011;9818;48.382;10.850;2024-03-08T10:33:41;7.50;;;5.43;;
19364;SDS011;9818;48.382;10.850;2024-03-08T10:36:10;6.63;;;5.73;;
19364;SDS011;9818;48.382;10.850;2024-03-08T10:38:40;6.30;;;5.27;;
19364;SDS011;9818;48.382;10.850;2024-03-08T10:41:12;7.33;;;5.40;;
19364;SDS011;9818;48.382;10.850;2024-03-08T10:43:59;6.73;;;5.33;;
19364;SDS011;9818;48.382;10.850;2024-03-08T10:46:49;6.43;;;5.33;;
19364;SDS011;9818;48.382;10.850;2024-03-08T10:49:34;7.00;;;5.60;;
19364;SDS011;9818;48.382;10.850;2024-03-08T10:52:07;6.07;;;5.47;;
19364;SDS011;9818;48.382;10.850;2024-03-08T10:54:38;6.00;;;5.07;;
19364;SDS011;9818;48.382;10.850;2024-03-08T10:57:08;6.47;;;5.33;;
19364;SDS011;9818;48.382;10.850;2024-03-08T10:59:40;6.37;;;5.03;;
19364;SDS011;9818;48.382;10.850;2024-03-08T11:02:10;5.77;;;5.17;;
19364;SDS011;9818;48.382;10.850;2024-03-08T11:04:46;6.60;;;5.20;;
19364;SDS011;9818;48.382;10.850;2024-03-08T11:07:15;6.57;;;5.17;;
19364;SDS011;9818;48.382;10.850;2024-03-08T11:09:48;5.27;;;4.60;;
19364;SDS011;9818;48.382;10.850;2024-03-08T11:12:23;5.23;;;4.70;;
19364;SDS011;9818;48.382;10.850;2024-03-08T11:14:54;6.03;;;4.53;;
19364;SDS011;9818;48.382;10.850;2024-03-08T11:20:18;5.63;;;4.60;;
19364;SDS011;9818;48.382;10.850;2024-03-08T11:22:48;5.37;;;4.77;;
19364;SDS011;9818;48.382;10.850;2024-03-08T11:28:13;5.80;;;4.97;;
19364;SDS011;9818;48.382;10.850;2024-03-08T11:30:44;6.40;;;4.93;;
19364;SDS011;9818;48.382;10.850;2024-03-08T11:33:15;5.27;;;4.43;;
19364;SDS011;9818;48.382;10.850;2024-03-08T11:35:46;6.13;;;4.80;;
19364;SDS011;9818;48.382;10.850;2024-03-08T11:38:15;4.67;;;4.10;;
19364;SDS011;9818;48.382;10.850;2024-03-08T11:40:46;5.03;;;4.53;;
19364;SDS011;9818;48.382;10.850;2024-03-08T11:43:17;5.87;;;4.67;;
19364;SDS011;9818;48.382;10.850;2024-03-08T11:45:46;5.77;;;4.53;;
19364;SDS011;9818;48.382;10.850;2024-03-08T11:48:14;6.40;;;4.80;;
19364;SDS011;9818;48.382;10.850;2024-03-08T11:50:43;5.23;;;4.60;;
19364;SDS011;9818;48.382;10.850;2024-03-08T11:53:26;5.80;;;4.60;;
19364;SDS011;9818;48.382;10.850;2024-03-08T11:55:56;4.87;;;4.37;;
19364;SDS011;9818;48.382;10.850;2024-03-08T11:58:34;5.53;;;4.60;;
19364;SDS011;9818;48.382;10.850;2024-03-08T12:01:04;4.50;;;4.00;;
19364;SDS011;9818;48.382;10.850;2024-03-08T12:03:34;5.30;;;4.80;;
19364;SDS011;9818;48.382;10.850;2024-03-08T12:06:06;5.40;;;4.60;;
19364;SDS011;9818;48.382;10.850;2024-03-08T12:08:35;5.13;;;4.63;;
19364;SDS011;9818;48.382;10.850;2024-03-08T12:11:04;5.40;;;4.47;;
19364;SDS011;9818;48.382;10.850;2024-03-08T12:13:35;4.53;;;4.03;;
19364;SDS011;9818;48.382;10.850;2024-03-08T12:16:05;5.60;;;4.27;;
19364;SDS011;9818;48.382;10.850;2024-03-08T12:18:34;4.87;;;4.27;;
19364;SDS011;9818;48.382;10.850;2024-03-08T12:21:09;6.07;;;4.53;;
19364;SDS011;9818;48.382;10.850;2024-03-08T12:23:39;5.07;;;4.57;;
19364;SDS011;9818;48.382;10.850;2024-03-08T12:26:11;5.03;;;4.30;;
19364;SDS011;9818;48.382;10.850;2024-03-08T12:28:41;4.57;;;4.13;;
19364;SDS011;9818;48.382;10.850;2024-03-08T12:31:13;5.03;;;4.23;;
19364;SDS011;9818;48.382;10.850;2024-03-08T12:33:49;5.73;;;4.67;;
19364;SDS011;9818;48.382;10.850;2024-03-08T12:36:20;5.57;;;4.23;;
19364;SDS011;9818;48.382;10.850;2024-03-08T12:38:49;4.20;;;3.73;;
19364;SDS011;9818;48.382;10.850;2024-03-08T12:41:19;5.63;;;3.90;;
19364;SDS011;9818;48.382;10.850;2024-03-08T12:43:48;6.43;;;4.60;;
19364;SDS011;9818;48.382;10.850;2024-03-08T12:46:17;5.53;;;3.87;;
19364;SDS011;9818;48.382;10.850;2024-03-08T12:48:51;4.93;;;4.27;;
19364;SDS011;9818;48.382;10.850;2024-03-08T12:51:22;4.53;;;4.03;;
19364;SDS011;9818;48.382;10.850;2024-03-08T12:53:54;4.63;;;4.00;;
19364;SDS011;9818;48.382;10.850;2024-03-08T12:56:28;6.63;;;4.13;;
19364;SDS011;9818;48.382;10.850;2024-03-08T12:58:58;5.57;;;4.20;;
19364;SDS011;9818;48.382;10.850;2024-03-08T13:01:28;5.27;;;4.50;;
19364;SDS011;9818;48.382;10.850;2024-03-08T13:03:57;5.57;;;4.63;;
19364;SDS011;9818;48.382;10.850;2024-03-08T13:06:29;4.60;;;4.17;;
19364;SDS011;9818;48.382;10.850;2024-03-08T13:08:58;5.97;;;4.00;;
19364;SDS011;9818;48.382;10.850;2024-03-08T13:11:30;4.20;;;3.80;;
19364;SDS011;9818;48.382;10.850;2024-03-08T13:14:01;5.20;;;4.30;;
19364;SDS011;9818;48.382;10.850;2024-03-08T13:16:32;4.77;;;3.80;;
19364;SDS011;9818;48.382;10.850;2024-03-08T13:19:01;5.43;;;4.00;;
19364;SDS011;9818;48.382;10.850;2024-03-08T13:21:32;4.23;;;3.73;;
19364;SDS011;9818;48.382;10.850;2024-03-08T13:24:01;4.77;;;3.30;;
19364;SDS011;9818;48.382;10.850;2024-03-08T13:26:30;20.30;;;11.60;;
19364;SDS011;9818;48.382;10.850;2024-03-08T13:28:59;17.93;;;12.53;;
19364;SDS011;9818;48.382;10.850;2024-03-08T13:31:28;8.10;;;6.70;;
19364;SDS011;9818;48.382;10.850;2024-03-08T13:33:56;8.27;;;6.13;;
19364;SDS011;9818;48.382;10.850;2024-03-08T13:36:25;6.93;;;5.70;;
19364;SDS011;9818;48.382;10.850;2024-03-08T13:39:06;8.77;;;6.00;;
19364;SDS011;9818;48.382;10.850;2024-03-08T13:41:40;7.90;;;5.67;;
19364;SDS011;9818;48.382;10.850;2024-03-08T13:44:10;7.20;;;5.50;;
19364;SDS011;9818;48.382;10.850;2024-03-08T13:46:38;6.43;;;4.80;;
19364;SDS011;9818;48.382;10.850;2024-03-08T13:49:07;8.30;;;5.03;;
19364;SDS011;9818;48.382;10.850;2024-03-08T13:51:36;7.00;;;4.90;;
19364;SDS011;9818;48.382;10.850;2024-03-08T13:54:07;6.47;;;5.20;;
19364;SDS011;9818;48.382;10.850;2024-03-08T13:56:36;6.07;;;4.57;;
19364;SDS011;9818;48.382;10.850;2024-03-08T13:59:05;4.93;;;4.40;;
19364;SDS011;9818;48.382;10.850;2024-03-08T14:01:34;6.40;;;4.53;;
19364;SDS011;9818;48.382;10.850;2024-03-08T14:04:03;5.60;;;4.07;;
19364;SDS011;9818;48.382;10.850;2024-03-08T14:06:33;8.17;;;4.90;;
19364;SDS011;9818;48.382;10.850;2024-03-08T14:09:02;6.03;;;4.30;;
19364;SDS011;9818;48.382;10.850;2024-03-08T14:11:35;6.03;;;4.50;;
19364;SDS011;9818;48.382;10.850;2024-03-08T14:14:04;4.77;;;4.13;;
19364;SDS011;9818;48.382;10.850;2024-03-08T14:16:34;5.13;;;4.50;;
19364;SDS011;9818;48.382;10.850;2024-03-08T14:19:03;5.37;;;4.40;;
19364;SDS011;9818;48.382;10.850;2024-03-08T14:21:35;5.80;;;4.40;;
19364;SDS011;9818;48.382;10.850;2024-03-08T14:24:05;5.40;;;4.07;;
19364;SDS011;9818;48.382;10.850;2024-03-08T14:26:36;7.40;;;4.60;;
19364;SDS011;9818;48.382;10.850;2024-03-08T14:29:07;6.63;;;4.50;;
19364;SDS011;9818;48.382;10.850;2024-03-08T14:31:36;4.73;;;4.10;;
19364;SDS011;9818;48.382;10.850;2024-03-08T14:34:06;5.23;;;4.20;;
19364;SDS011;9818;48.382;10.850;2024-03-08T14:36:35;4.80;;;4.07;;
19364;SDS011;9818;48.382;10.850;2024-03-08T14:39:04;6.43;;;4.00;;
19364;SDS011;9818;48.382;10.850;2024-03-08T14:41:36;4.63;;;3.97;;
19364;SDS011;9818;48.382;10.850;2024-03-08T14:44:04;4.90;;;4.23;;
19364;SDS011;9818;48.382;10.850;2024-03-08T14:46:34;5.53;;;3.87;;
19364;SDS011;9818;48.382;10.850;2024-03-08T14:49:04;5.10;;;3.97;;
19364;SDS011;9818;48.382;10.850;2024-03-08T14:51:32;5.10;;;4.40;;
19364;SDS011;9818;48.382;10.850;2024-03-08T14:54:01;4.97;;;4.20;;
19364;SDS011;9818;48.382;10.850;2024-03-08T14:56:31;4.17;;;3.70;;
19364;SDS011;9818;48.382;10.850;2024-03-08T14:59:03;4.53;;;4.13;;
19364;SDS011;9818;48.382;10.850;2024-03-08T15:01:33;4.70;;;4.00;;
19364;SDS011;9818;48.382;10.850;2024-03-08T15:04:02;5.23;;;3.63;;
19364;SDS011;9818;48.382;10.850;2024-03-08T15:06:33;7.67;;;5.20;;
19364;SDS011;9818;48.382;10.850;2024-03-08T15:09:02;8.33;;;5.20;;